createdAt,value
2022-08-07T00:02:36.094Z,1022.33
2022-08-07T00:07:50.619Z,1022.37
2022-08-07T00:10:47.644Z,1022.37
2022-08-07T00:16:28.099Z,1022.38
2022-08-07T00:22:03.604Z,1022.39
2022-08-07T00:27:52.370Z,1022.38
2022-08-07T00:30:32.414Z,1022.42
2022-08-07T00:36:09.750Z,1022.39
2022-08-07T00:41:53.501Z,1022.33
2022-08-07T00:48:07.649Z,1022.42
2022-08-07T00:50:46.657Z,1022.37
2022-08-07T00:56:13.781Z,1022.40
2022-08-07T01:01:51.950Z,1022.39
2022-08-07T01:07:36.143Z,1022.38
2022-08-07T01:10:22.444Z,1022.40
2022-08-07T01:16:04.926Z,1022.34
2022-08-07T01:21:42.158Z,1022.36
2022-08-07T01:27:32.148Z,1022.26
2022-08-07T01:36:05.827Z,1022.31
2022-08-07T01:41:38.652Z,1022.30
2022-08-07T01:47:14.528Z,1022.30
2022-08-07T01:52:58.511Z,1022.32
2022-08-07T01:58:34.029Z,1022.28
2022-08-07T02:01:58.902Z,1022.26
2022-08-07T02:07:06.395Z,1022.32
2022-08-07T02:12:41.708Z,1022.26
2022-08-07T02:18:26.049Z,1022.25
2022-08-07T02:21:16.328Z,1022.30
2022-08-07T02:26:51.974Z,1022.27
2022-08-07T02:32:30.133Z,1022.30
2022-08-07T02:38:05.586Z,1022.32
2022-08-07T02:43:40.803Z,1022.26
2022-08-07T02:49:28.587Z,1022.24
2022-08-07T02:52:13.018Z,1022.19
2022-08-07T02:57:49.639Z,1022.25
2022-08-07T03:00:36.027Z,1022.26
2022-08-07T03:09:05.209Z,1022.28
2022-08-07T03:11:52.217Z,1022.30
2022-08-07T03:17:36.321Z,1022.29
2022-08-07T03:20:27.682Z,1022.32
2022-08-07T03:23:18.889Z,1022.28
2022-08-07T03:31:49.965Z,1022.23
2022-08-07T03:37:27.736Z,1022.33
2022-08-07T03:43:03.531Z,1022.37
2022-08-07T03:48:45.373Z,1022.44
2022-08-07T03:51:47.904Z,1022.38
2022-08-07T03:58:32.675Z,1022.38
2022-08-07T04:03:03.987Z,1022.40
2022-08-07T04:08:40.172Z,1022.44
2022-08-07T04:12:23.412Z,1022.39
2022-08-07T04:18:31.916Z,1022.39
2022-08-07T04:23:01.472Z,1022.47
2022-08-07T04:28:37.756Z,1022.48
2022-08-07T04:31:39.199Z,1022.49
2022-08-07T04:37:07.980Z,1022.52
2022-08-07T04:42:52.405Z,1022.46
2022-08-07T04:48:27.784Z,1022.50
2022-08-07T04:51:13.052Z,1022.52
2022-08-07T04:58:12.160Z,1022.54
2022-08-07T05:05:53.344Z,1022.54
2022-08-07T05:11:09.137Z,1022.52
2022-08-07T05:16:45.403Z,1022.58
2022-08-07T05:22:26.655Z,1022.59
2022-08-07T05:28:20.109Z,1022.60
2022-08-07T05:30:58.607Z,1022.60
2022-08-07T05:36:35.234Z,1022.60
2022-08-07T05:42:12.771Z,1022.62
2022-08-07T05:48:02.158Z,1022.60
2022-08-07T05:50:43.302Z,1022.63
2022-08-07T05:56:18.731Z,1022.63
2022-08-07T06:01:54.154Z,1022.64
2022-08-07T06:08:13.169Z,1022.70
2022-08-07T06:13:15.502Z,1022.66
2022-08-07T06:18:55.809Z,1022.72
2022-08-07T06:22:14.679Z,1022.67
2022-08-07T06:27:44.321Z,1022.68
2022-08-07T06:33:16.870Z,1022.66
2022-08-07T06:38:59.689Z,1022.69
2022-08-07T06:44:39.650Z,1022.74
2022-08-07T06:50:15.339Z,1022.76
2022-08-07T06:56:00.872Z,1022.73
2022-08-07T07:01:43.902Z,1022.73
2022-08-07T07:08:00.107Z,1022.71
2022-08-07T07:13:07.216Z,1022.76
2022-08-07T07:18:51.469Z,1022.79
2022-08-07T07:22:04.132Z,1022.78
2022-08-07T07:27:21.238Z,1022.71
2022-08-07T07:32:57.081Z,1022.68
2022-08-07T07:38:36.691Z,1022.65
2022-08-07T07:41:50.433Z,1022.62
2022-08-07T07:47:16.000Z,1022.57
2022-08-07T07:50:33.161Z,1022.54
2022-08-07T07:52:58.198Z,1022.53
2022-08-07T07:58:41.032Z,1022.43
2022-08-07T08:02:01.850Z,1022.43
2022-08-07T08:07:11.047Z,1022.33
2022-08-07T08:12:59.020Z,1022.32
2022-08-07T08:18:30.905Z,1022.25
2022-08-07T08:21:15.471Z,1022.28
2022-08-07T08:26:51.014Z,1022.25
2022-08-07T08:32:38.498Z,1022.18
2022-08-07T08:38:13.626Z,1022.27
2022-08-07T08:40:58.160Z,1022.21
2022-08-07T08:46:33.409Z,1022.13
2022-08-07T08:52:14.449Z,1022.05
2022-08-07T08:57:54.715Z,1022.03
2022-08-07T09:00:42.454Z,1022.05
2022-08-07T09:06:18.119Z,1022.04
2022-08-07T09:11:56.168Z,1022.03
2022-08-07T09:18:01.288Z,1021.98
2022-08-07T09:20:34.858Z,1021.99
2022-08-07T09:26:11.036Z,1021.95
2022-08-07T09:31:49.163Z,1021.84
2022-08-07T09:37:48.434Z,1021.73
2022-08-07T09:43:09.272Z,1021.66
2022-08-07T09:47:54.991Z,1021.67
2022-08-07T09:52:16.758Z,1021.58
2022-08-07T09:57:32.348Z,1021.55
2022-08-07T10:04:03.192Z,1021.56
2022-08-07T10:08:56.172Z,1021.48
2022-08-07T10:12:02.432Z,1021.46
2022-08-07T10:17:25.066Z,1021.41
2022-08-07T10:23:03.696Z,1021.32
2022-08-07T10:28:49.766Z,1021.24
2022-08-07T10:31:38.982Z,1021.23
2022-08-07T10:37:14.514Z,1021.16
2022-08-07T10:42:52.741Z,1021.12
2022-08-07T10:48:34.565Z,1021.00
2022-08-07T10:51:57.560Z,1020.99
2022-08-07T10:57:06.118Z,1020.88
2022-08-07T11:02:49.104Z,1020.74
2022-08-07T11:08:30.301Z,1020.67
2022-08-07T11:11:15.175Z,1020.68
2022-08-07T11:17:01.918Z,1020.60
2022-08-07T11:22:45.601Z,1020.57
2022-08-07T11:25:36.137Z,1020.54
2022-08-07T11:31:16.564Z,1020.45
2022-08-07T11:36:52.070Z,1020.43
2022-08-07T11:39:59.180Z,1020.39
2022-08-07T11:42:33.373Z,1020.37
2022-08-07T11:48:18.150Z,1020.37
2022-08-07T11:54:00.791Z,1020.38
2022-08-07T11:56:53.061Z,1020.32
2022-08-07T12:02:32.938Z,1020.32
2022-08-07T12:08:25.436Z,1020.23
2022-08-07T12:13:54.926Z,1020.20
2022-08-07T12:16:42.034Z,1020.22
2022-08-07T12:22:36.985Z,1020.15
2022-08-07T12:28:09.719Z,1020.12
2022-08-07T12:34:00.984Z,1020.11
2022-08-07T12:39:43.663Z,1020.06
2022-08-07T12:45:14.610Z,1019.97
2022-08-07T12:47:59.130Z,1019.95
2022-08-07T12:56:26.912Z,1019.83
2022-08-07T13:08:12.331Z,1019.71
2022-08-07T13:13:48.698Z,1019.52
2022-08-07T13:16:23.414Z,1019.48
2022-08-07T13:22:04.016Z,1019.39
2022-08-07T13:28:11.007Z,1019.33
2022-08-07T13:34:32.973Z,1019.22
2022-08-07T13:36:25.973Z,1019.21
2022-08-07T13:45:11.655Z,1019.11
2022-08-07T13:48:04.309Z,1019.17
2022-08-07T13:53:35.978Z,1019.00
2022-08-07T13:56:36.257Z,1019.09
2022-08-07T14:02:10.442Z,1019.01
2022-08-07T14:07:59.381Z,1019.01
2022-08-07T14:13:33.194Z,1018.83
2022-08-07T14:19:08.985Z,1018.87
2022-08-07T14:24:53.220Z,1018.88
2022-08-07T14:28:10.809Z,1018.86
2022-08-07T14:33:23.610Z,1018.76
2022-08-07T14:38:59.224Z,1018.65
2022-08-07T14:44:34.462Z,1018.62
2022-08-07T14:47:18.877Z,1018.70
2022-08-07T14:52:54.157Z,1018.64
2022-08-07T14:58:30.062Z,1018.62
2022-08-07T15:04:06.555Z,1018.48
2022-08-07T15:06:52.285Z,1018.46
2022-08-07T15:12:30.433Z,1018.39
2022-08-07T15:18:06.248Z,1018.28
2022-08-07T15:25:14.124Z,1018.16
2022-08-07T15:38:30.123Z,1018.42
2022-08-07T15:43:57.103Z,1018.20
2022-08-07T15:58:21.035Z,1018.13
2022-08-07T16:06:53.006Z,1018.09
2022-08-07T16:12:29.934Z,1018.07
2022-08-07T16:18:05.938Z,1018.02
2022-08-07T16:23:53.905Z,1017.93
2022-08-07T16:26:34.880Z,1017.87
2022-08-07T16:32:46.610Z,1017.90
2022-08-07T16:38:04.283Z,1018.00
2022-08-07T16:44:02.439Z,1017.99
2022-08-07T16:47:07.610Z,1018.01
2022-08-07T16:52:51.252Z,1018.08
2022-08-07T16:58:08.185Z,1018.06
2022-08-07T17:06:42.563Z,1018.02
2022-08-07T17:12:33.824Z,1018.03
2022-08-07T17:18:03.615Z,1018.05
2022-08-07T17:23:41.242Z,1018.10
2022-08-07T17:26:31.332Z,1018.08
2022-08-07T17:32:53.016Z,1018.15
2022-08-07T17:38:11.435Z,1018.16
2022-08-07T17:44:01.755Z,1018.17
2022-08-07T17:46:34.463Z,1018.14
2022-08-07T17:49:22.972Z,1018.18
2022-08-07T17:54:59.532Z,1018.19
2022-08-07T17:57:59.219Z,1018.16
2022-08-07T18:03:28.355Z,1018.18
2022-08-07T18:12:16.184Z,1018.22
2022-08-07T18:18:46.500Z,1018.21
2022-08-07T18:23:43.350Z,1018.22
2022-08-07T18:30:04.572Z,1018.30
2022-08-07T18:35:02.577Z,1018.33
2022-08-07T18:38:55.880Z,1018.32
2022-08-07T18:43:42.822Z,1018.34
2022-08-07T18:50:06.788Z,1018.39
2022-08-07T18:55:40.777Z,1018.49
2022-08-07T18:57:58.791Z,1018.46
2022-08-07T19:03:37.821Z,1018.53
2022-08-07T19:09:57.012Z,1018.52
2022-08-07T19:14:58.517Z,1018.56
2022-08-07T19:17:55.935Z,1018.59
2022-08-07T19:20:39.798Z,1018.61
2022-08-07T19:26:29.028Z,1018.58
2022-08-07T19:32:17.163Z,1018.63
2022-08-07T19:37:55.371Z,1018.69
2022-08-07T19:43:48.815Z,1018.70
2022-08-07T19:49:57.600Z,1018.73
2022-08-07T19:55:05.731Z,1018.78
2022-08-07T19:58:13.969Z,1018.81
2022-08-07T20:03:45.592Z,1018.83
2022-08-07T20:10:35.396Z,1018.87
2022-08-07T20:17:56.282Z,1018.95
2022-08-07T20:23:43.329Z,1019.04
2022-08-07T20:29:47.693Z,1019.01
2022-08-07T20:35:08.653Z,1019.02
2022-08-07T20:37:57.765Z,1019.04
2022-08-07T20:43:47.506Z,1019.01
2022-08-07T20:50:01.125Z,1019.07
2022-08-07T20:55:07.520Z,1019.14
2022-08-07T20:58:00.153Z,1019.16
2022-08-07T21:03:38.177Z,1019.12
2022-08-07T21:09:15.347Z,1019.06
2022-08-07T21:14:53.752Z,1019.08
2022-08-07T21:18:03.444Z,1019.15
2022-08-07T21:23:22.964Z,1019.17
2022-08-07T21:29:01.653Z,1019.14
2022-08-07T21:34:46.058Z,1019.16
2022-08-07T21:37:31.655Z,1019.17
2022-08-07T21:43:15.056Z,1019.15
2022-08-07T21:48:59.500Z,1019.14
2022-08-07T21:54:34.804Z,1019.15
2022-08-07T22:00:22.177Z,1019.17
2022-08-07T22:05:54.588Z,1019.22
2022-08-07T22:08:39.736Z,1019.20
2022-08-07T22:14:34.963Z,1019.22
2022-08-07T22:20:02.966Z,1019.25
2022-08-07T22:25:38.428Z,1019.23
2022-08-07T22:28:31.973Z,1019.26
2022-08-07T22:34:13.176Z,1019.23
2022-08-07T22:39:52.841Z,1019.23
2022-08-07T22:46:04.331Z,1019.26
2022-08-07T22:48:55.560Z,1019.28
2022-08-07T22:54:09.199Z,1019.31
2022-08-07T22:59:44.743Z,1019.28
2022-08-07T23:06:08.406Z,1019.28
2022-08-07T23:08:24.293Z,1019.24
2022-08-07T23:14:15.569Z,1019.33
2022-08-07T23:19:51.705Z,1019.36
2022-08-07T23:25:28.661Z,1019.34
2022-08-07T23:28:20.628Z,1019.37
2022-08-07T23:34:36.358Z,1019.37
2022-08-07T23:39:42.603Z,1019.36
2022-08-07T23:45:33.157Z,1019.36
2022-08-07T23:51:02.433Z,1019.29
2022-08-07T23:56:38.075Z,1019.34
